sensor_id;sensor_type;location;lat;lon;timestamp;pressure;altitude;pressure_sealevel;temperature;humidity
77351;BME280;66420;50.246;14.320;2024-03-06T00:01:36;99652.88;;;4.37;100.00
77351;BME280;66420;50.246;14.320;2024-03-06T00:04:21;99662.88;;;4.31;100.00
77351;BME280;66420;50.246;14.320;2024-03-06T00:07:06;99656.63;;;4.21;100.00
77351;BME280;66420;50.246;14.320;2024-03-06T00:09:50;99660.94;;;4.17;100.00
77351;BME280;66420;50.246;14.320;2024-03-06T00:12:35;99671.44;;;4.03;100.00
77351;BME280;66420;50.246;14.320;2024-03-06T00:15:19;99671.44;;;4.03;100.00
77351;BME280;66420;50.246;14.320;2024-03-06T00:18:04;99674.09;;;3.93;100.00
77351;BME280;66420;50.246;14.320;2024-03-06T00:20:49;99676.38;;;3.69;100.00
77351;BME280;66420;50.246;14.320;2024-03-06T00:23:34;99670.97;;;3.69;100.00
77351;BME280;66420;50.246;14.320;2024-03-06T00:26:20;99674.22;;;3.71;100.00
77351;BME280;66420;50.246;14.320;2024-03-06T00:29:04;99684.19;;;3.66;100.00
77351;BME280;66420;50.246;14.320;2024-03-06T00:31:50;99685.28;;;3.65;100.00
77351;BME280;66420;50.246;14.320;2024-03-06T00:34:35;99692.00;;;3.62;100.00
77351;BME280;66420;50.246;14.320;2024-03-06T00:37:19;99692.28;;;3.61;100.00
77351;BME280;66420;50.246;14.320;2024-03-06T00:40:04;99694.47;;;3.64;100.00
77351;BME280;66420;50.246;14.320;2024-03-06T00:42:50;99683.06;;;3.56;100.00
77351;BME280;66420;50.246;14.320;2024-03-06T00:45:35;99683.88;;;3.57;100.00
77351;BME280;66420;50.246;14.320;2024-03-06T00:48:19;99689.56;;;3.61;100.00
77351;BME280;66420;50.246;14.320;2024-03-06T00:51:05;99691.72;;;3.58;100.00
77351;BME280;66420;50.246;14.320;2024-03-06T00:53:51;99690.84;;;3.53;100.00
77351;BME280;66420;50.246;14.320;2024-03-06T00:56:39;99697.75;;;3.66;100.00
77351;BME280;66420;50.246;14.320;2024-03-06T00:59:24;99691.22;;;3.62;100.00
77351;BME280;66420;50.246;14.320;2024-03-06T01:02:08;99700.91;;;3.57;100.00
77351;BME280;66420;50.246;14.320;2024-03-06T01:04:53;99698.75;;;3.60;100.00
77351;BME280;66420;50.246;14.320;2024-03-06T01:07:38;99696.88;;;3.60;100.00
77351;BME280;66420;50.246;14.320;2024-03-06T01:10:23;99693.34;;;3.60;100.00
77351;BME280;66420;50.246;14.320;2024-03-06T01:13:08;99696.03;;;3.54;100.00
77351;BME280;66420;50.246;14.320;2024-03-06T01:15:54;99686.84;;;3.55;100.00
77351;BME280;66420;50.246;14.320;2024-03-06T01:18:39;99684.13;;;3.55;100.00
77351;BME280;66420;50.246;14.320;2024-03-06T01:21:24;99684.66;;;3.52;100.00
77351;BME280;66420;50.246;14.320;2024-03-06T01:24:09;99693.03;;;3.51;100.00
77351;BME280;66420;50.246;14.320;2024-03-06T01:26:53;99687.84;;;3.49;100.00
77351;BME280;66420;50.246;14.320;2024-03-06T01:29:38;99696.25;;;3.48;100.00
77351;BME280;66420;50.246;14.320;2024-03-06T01:32:22;99698.16;;;3.47;100.00
77351;BME280;66420;50.246;14.320;2024-03-06T01:35:07;99697.56;;;3.45;100.00
77351;BME280;66420;50.246;14.320;2024-03-06T01:37:52;99699.69;;;3.38;100.00
77351;BME280;66420;50.246;14.320;2024-03-06T01:40:37;99698.00;;;3.32;100.00
77351;BME280;66420;50.246;14.320;2024-03-06T01:43:24;99697.44;;;3.30;100.00
77351;BME280;66420;50.246;14.320;2024-03-06T01:46:09;99706.56;;;3.19;100.00
77351;BME280;66420;50.246;14.320;2024-03-06T01:48:54;99698.97;;;3.16;100.00
77351;BME280;66420;50.246;14.320;2024-03-06T01:51:41;99702.22;;;3.18;100.00
77351;BME280;66420;50.246;14.320;2024-03-06T01:54:26;99707.56;;;3.13;100.00
77351;BME280;66420;50.246;14.320;2024-03-06T01:57:15;99705.97;;;3.17;100.00
77351;BME280;66420;50.246;14.320;2024-03-06T02:00:01;99710.91;;;3.20;100.00
77351;BME280;66420;50.246;14.320;2024-03-06T02:02:47;99707.63;;;3.18;100.00
77351;BME280;66420;50.246;14.320;2024-03-06T02:05:32;99710.28;;;3.13;100.00
77351;BME280;66420;50.246;14.320;2024-03-06T02:08:17;99711.72;;;3.21;100.00
77351;BME280;66420;50.246;14.320;2024-03-06T02:11:02;99720.97;;;3.03;100.00
77351;BME280;66420;50.246;14.320;2024-03-06T02:13:49;99716.09;;;3.00;100.00
77351;BME280;66420;50.246;14.320;2024-03-06T02:16:34;99718.81;;;3.00;100.00
77351;BME280;66420;50.246;14.320;2024-03-06T02:19:19;99724.22;;;3.00;100.00
77351;BME280;66420;50.246;14.320;2024-03-06T02:22:03;99715.75;;;2.91;100.00
77351;BME280;66420;50.246;14.320;2024-03-06T02:24:48;99714.41;;;2.94;100.00
77351;BME280;66420;50.246;14.320;2024-03-06T02:27:33;99713.16;;;3.01;100.00
77351;BME280;66420;50.246;14.320;2024-03-06T02:30:21;99721.75;;;2.98;100.00
77351;BME280;66420;50.246;14.320;2024-03-06T02:33:05;99720.69;;;2.99;100.00
77351;BME280;66420;50.246;14.320;2024-03-06T02:35:53;99710.75;;;3.05;100.00
77351;BME280;66420;50.246;14.320;2024-03-06T02:38:38;99727.91;;;2.94;100.00
77351;BME280;66420;50.246;14.320;2024-03-06T02:41:23;99727.97;;;2.99;100.00
77351;BME280;66420;50.246;14.320;2024-03-06T02:44:07;99728.59;;;3.06;100.00
77351;BME280;66420;50.246;14.320;2024-03-06T02:46:52;99733.50;;;3.09;100.00
77351;BME280;66420;50.246;14.320;2024-03-06T02:49:37;99736.66;;;3.01;100.00
77351;BME280;66420;50.246;14.320;2024-03-06T02:52:21;99738.78;;;2.99;100.00
77351;BME280;66420;50.246;14.320;2024-03-06T02:55:06;99745.31;;;3.03;100.00
77351;BME280;66420;50.246;14.320;2024-03-06T02:57:51;99744.53;;;3.02;100.00
77351;BME280;66420;50.246;14.320;2024-03-06T03:00:36;99745.31;;;3.03;100.00
77351;BME280;66420;50.246;14.320;2024-03-06T03:03:21;99746.47;;;3.07;100.00
77351;BME280;66420;50.246;14.320;2024-03-06T03:06:05;99752.19;;;3.10;100.00
77351;BME280;66420;50.246;14.320;2024-03-06T03:08:50;99747.22;;;3.02;100.00
77351;BME280;66420;50.246;14.320;2024-03-06T03:11:35;99754.81;;;3.05;100.00
77351;BME280;66420;50.246;14.320;2024-03-06T03:14:20;99748.13;;;3.13;100.00
77351;BME280;66420;50.246;14.320;2024-03-06T03:17:04;99758.69;;;3.15;100.00
77351;BME280;66420;50.246;14.320;2024-03-06T03:19:49;99755.75;;;3.16;100.00
77351;BME280;66420;50.246;14.320;2024-03-06T03:22:34;99754.13;;;3.15;100.00
77351;BME280;66420;50.246;14.320;2024-03-06T03:25:18;99748.13;;;3.13;100.00
77351;BME280;66420;50.246;14.320;2024-03-06T03:28:05;99751.91;;;3.12;100.00
77351;BME280;66420;50.246;14.320;2024-03-06T03:30:50;99753.84;;;3.17;100.00
77351;BME280;66420;50.246;14.320;2024-03-06T03:33:38;99750.66;;;3.20;100.00
77351;BME280;66420;50.246;14.320;2024-03-06T03:36:23;99751.50;;;3.25;100.00
77351;BME280;66420;50.246;14.320;2024-03-06T03:39:10;99749.34;;;3.27;100.00
77351;BME280;66420;50.246;14.320;2024-03-06T03:42:00;99756.94;;;3.30;100.00
77351;BME280;66420;50.246;14.320;2024-03-06T03:44:44;99748.63;;;3.37;100.00
77351;BME280;66420;50.246;14.320;2024-03-06T03:47:30;99754.38;;;3.45;100.00
77351;BME280;66420;50.246;14.320;2024-03-06T03:50:15;99753.28;;;3.41;100.00
77351;BME280;66420;50.246;14.320;2024-03-06T03:52:59;99752.69;;;3.39;100.00
77351;BME280;66420;50.246;14.320;2024-03-06T03:55:45;99756.22;;;3.40;100.00
77351;BME280;66420;50.246;14.320;2024-03-06T03:58:29;99767.31;;;3.38;100.00
77351;BME280;66420;50.246;14.320;2024-03-06T04:01:14;99771.09;;;3.37;100.00
77351;BME280;66420;50.246;14.320;2024-03-06T04:03:59;99764.09;;;3.41;100.00
77351;BME280;66420;50.246;14.320;2024-03-06T04:06:44;99766.22;;;3.39;100.00
77351;BME280;66420;50.246;14.320;2024-03-06T04:09:30;99764.69;;;3.48;100.00
77351;BME280;66420;50.246;14.320;2024-03-06T04:12:14;99763.56;;;3.44;100.00
77351;BME280;66420;50.246;14.320;2024-03-06T04:14:59;99765.16;;;3.40;100.00
77351;BME280;66420;50.246;14.320;2024-03-06T04:17:44;99775.97;;;3.40;100.00
77351;BME280;66420;50.246;14.320;2024-03-06T04:20:29;99780.38;;;3.46;100.00
77351;BME280;66420;50.246;14.320;2024-03-06T04:23:14;99769.56;;;3.46;100.00
77351;BME280;66420;50.246;14.320;2024-03-06T04:25:59;99771.19;;;3.47;100.00
77351;BME280;66420;50.246;14.320;2024-03-06T04:28:44;99774.19;;;3.51;100.00
77351;BME280;66420;50.246;14.320;2024-03-06T04:31:29;99774.50;;;3.54;100.00
77351;BME280;66420;50.246;14.320;2024-03-06T04:34:14;99773.66;;;3.54;100.00
77351;BME280;66420;50.246;14.320;2024-03-06T04:36:58;99772.91;;;3.58;100.00
77351;BME280;66420;50.246;14.320;2024-03-06T04:39:44;99767.81;;;3.67;100.00
77351;BME280;66420;50.246;14.320;2024-03-06T04:42:29;99774.06;;;3.68;100.00
77351;BME280;66420;50.246;14.320;2024-03-06T04:45:15;99781.88;;;3.64;100.00
77351;BME280;66420;50.246;14.320;2024-03-06T04:48:00;99785.94;;;3.67;100.00
77351;BME280;66420;50.246;14.320;2024-03-06T04:50:45;99778.41;;;3.69;100.00
77351;BME280;66420;50.246;14.320;2024-03-06T04:53:30;99783.84;;;3.74;100.00
77351;BME280;66420;50.246;14.320;2024-03-06T04:56:14;99783.09;;;3.78;100.00
77351;BME280;66420;50.246;14.320;2024-03-06T04:59:00;99792.03;;;3.79;100.00
77351;BME280;66420;50.246;14.320;2024-03-06T05:01:47;99789.84;;;3.81;100.00
77351;BME280;66420;50.246;14.320;2024-03-06T05:04:32;99785.53;;;3.80;100.00
77351;BME280;66420;50.246;14.320;2024-03-06T05:07:17;99780.09;;;3.75;100.00
77351;BME280;66420;50.246;14.320;2024-03-06T05:10:02;99787.13;;;3.76;100.00
77351;BME280;66420;50.246;14.320;2024-03-06T05:12:47;99786.38;;;3.80;100.00
77351;BME280;66420;50.246;14.320;2024-03-06T05:15:33;99792.88;;;3.84;100.00
77351;BME280;66420;50.246;14.320;2024-03-06T05:18:17;99797.25;;;3.90;100.00
77351;BME280;66420;50.246;14.320;2024-03-06T05:21:03;99797.53;;;3.89;100.00
77351;BME280;66420;50.246;14.320;2024-03-06T05:23:48;99818.63;;;3.87;100.00
77351;BME280;66420;50.246;14.320;2024-03-06T05:26:33;99813.19;;;3.87;100.00
77351;BME280;66420;50.246;14.320;2024-03-06T05:29:19;99810.50;;;3.87;100.00
77351;BME280;66420;50.246;14.320;2024-03-06T05:32:03;99816.16;;;3.85;100.00
77351;BME280;66420;50.246;14.320;2024-03-06T05:34:48;99822.44;;;3.91;100.00
77351;BME280;66420;50.246;14.320;2024-03-06T05:37:32;99814.84;;;3.88;100.00
77351;BME280;66420;50.246;14.320;2024-03-06T05:40:17;99825.16;;;3.91;100.00
77351;BME280;66420;50.246;14.320;2024-03-06T05:43:02;99830.06;;;3.94;100.00
77351;BME280;66420;50.246;14.320;2024-03-06T05:45:46;99833.53;;;3.89;100.00
77351;BME280;66420;50.246;14.320;2024-03-06T05:48:31;99837.63;;;3.92;100.00
77351;BME280;66420;50.246;14.320;2024-03-06T05:51:18;99831.19;;;3.98;100.00
77351;BME280;66420;50.246;14.320;2024-03-06T05:54:03;99834.13;;;3.96;100.00
77351;BME280;66420;50.246;14.320;2024-03-06T05:56:49;99838.19;;;3.99;100.00
77351;BME280;66420;50.246;14.320;2024-03-06T05:59:34;99845.22;;;3.95;100.00
77351;BME280;66420;50.246;14.320;2024-03-06T06:02:19;99837.09;;;3.95;100.00
77351;BME280;66420;50.246;14.320;2024-03-06T06:05:05;99842.50;;;3.95;100.00
77351;BME280;66420;50.246;14.320;2024-03-06T06:07:51;99846.31;;;3.99;100.00
77351;BME280;66420;50.246;14.320;2024-03-06T06:10:36;99846.59;;;3.97;100.00
77351;BME280;66420;50.246;14.320;2024-03-06T06:13:21;99854.25;;;4.06;100.00
77351;BME280;66420;50.246;14.320;2024-03-06T06:16:06;99855.34;;;4.10;100.00
77351;BME280;66420;50.246;14.320;2024-03-06T06:18:51;99859.13;;;4.09;100.00
77351;BME280;66420;50.246;14.320;2024-03-06T06:21:35;99871.91;;;4.13;100.00
77351;BME280;66420;50.246;14.320;2024-03-06T06:24:20;99872.19;;;4.12;100.00
77351;BME280;66420;50.246;14.320;2024-03-06T06:27:04;99863.84;;;4.23;100.00
77351;BME280;66420;50.246;14.320;2024-03-06T06:29:49;99870.09;;;4.24;100.00
77351;BME280;66420;50.246;14.320;2024-03-06T06:32:34;99863.91;;;4.28;100.00
77351;BME280;66420;50.246;14.320;2024-03-06T06:35:19;99868.75;;;4.26;100.00
77351;BME280;66420;50.246;14.320;2024-03-06T06:38:03;99871.00;;;4.34;100.00
77351;BME280;66420;50.246;14.320;2024-03-06T06:40:49;99873.47;;;4.41;100.00
77351;BME280;66420;50.246;14.320;2024-03-06T06:43:35;99878.63;;;4.42;100.00
77351;BME280;66420;50.246;14.320;2024-03-06T06:46:19;99879.69;;;4.41;100.00
77351;BME280;66420;50.246;14.320;2024-03-06T06:49:05;99881.91;;;4.50;100.00
77351;BME280;66420;50.246;14.320;2024-03-06T06:51:50;99893.38;;;4.57;100.00
77351;BME280;66420;50.246;14.320;2024-03-06T06:54:35;99892.00;;;4.59;100.00
77351;BME280;66420;50.246;14.320;2024-03-06T06:57:19;99901.00;;;4.65;100.00
77351;BME280;66420;50.246;14.320;2024-03-06T07:00:05;99901.28;;;4.68;100.00
77351;BME280;66420;50.246;14.320;2024-03-06T07:02:56;99896.19;;;4.72;100.00
77351;BME280;66420;50.246;14.320;2024-03-06T07:05:43;99897.28;;;4.76;100.00
77351;BME280;66420;50.246;14.320;2024-03-06T07:08:27;99909.28;;;4.85;100.00
77351;BME280;66420;50.246;14.320;2024-03-06T07:11:13;99897.91;;;4.93;100.00
77351;BME280;66420;50.246;14.320;2024-03-06T07:13:58;99906.06;;;4.93;100.00
77351;BME280;66420;50.246;14.320;2024-03-06T07:16:46;99905.00;;;4.99;100.00
77351;BME280;66420;50.246;14.320;2024-03-06T07:19:31;99908.28;;;5.06;100.00
77351;BME280;66420;50.246;14.320;2024-03-06T07:22:16;99912.94;;;5.16;100.00
77351;BME280;66420;50.246;14.320;2024-03-06T07:25:01;99910.00;;;5.22;100.00
77351;BME280;66420;50.246;14.320;2024-03-06T07:27:46;99911.63;;;5.28;100.00
77351;BME280;66420;50.246;14.320;2024-03-06T07:30:31;99914.16;;;5.40;100.00
77351;BME280;66420;50.246;14.320;2024-03-06T07:33:16;99918.22;;;5.43;100.00
77351;BME280;66420;50.246;14.320;2024-03-06T07:36:00;99913.38;;;5.50;100.00
77351;BME280;66420;50.246;14.320;2024-03-06T07:38:46;99913.38;;;5.50;100.00
77351;BME280;66420;50.246;14.320;2024-03-06T07:41:31;99921.50;;;5.55;100.00
77351;BME280;66420;50.246;14.320;2024-03-06T07:44:19;99924.22;;;5.50;100.00
77351;BME280;66420;50.246;14.320;2024-03-06T07:47:05;99920.72;;;5.64;100.00
77351;BME280;66420;50.246;14.320;2024-03-06T07:49:50;99925.91;;;5.71;100.00
77351;BME280;66420;50.246;14.320;2024-03-06T07:52:35;99927.56;;;5.77;100.00
77351;BME280;66420;50.246;14.320;2024-03-06T07:55:20;99936.25;;;5.84;100.00
77351;BME280;66420;50.246;14.320;2024-03-06T07:58:06;99935.22;;;5.90;100.00
77351;BME280;66420;50.246;14.320;2024-03-06T08:00:52;99939.53;;;5.91;100.00
77351;BME280;66420;50.246;14.320;2024-03-06T08:03:40;99937.66;;;5.97;100.00
77351;BME280;66420;50.246;14.320;2024-03-06T08:06:29;99939.88;;;6.05;100.00
77351;BME280;66420;50.246;14.320;2024-03-06T08:09:14;99948.28;;;5.98;100.00
77351;BME280;66420;50.246;14.320;2024-03-06T08:12:00;99935.53;;;6.04;100.00
77351;BME280;66420;50.246;14.320;2024-03-06T08:14:45;99940.66;;;6.05;100.00
77351;BME280;66420;50.246;14.320;2024-03-06T08:17:30;99940.69;;;6.15;100.00
77351;BME280;66420;50.246;14.320;2024-03-06T08:20:14;99940.69;;;6.20;100.00
77351;BME280;66420;50.246;14.320;2024-03-06T08:22:59;99944.25;;;6.36;100.00
77351;BME280;66420;50.246;14.320;2024-03-06T08:25:44;99945.84;;;6.37;100.00
77351;BME280;66420;50.246;14.320;2024-03-06T08:28:29;99954.28;;;6.51;100.00
77351;BME280;66420;50.246;14.320;2024-03-06T08:31:14;99949.13;;;6.59;100.00
77351;BME280;66420;50.246;14.320;2024-03-06T08:33:58;99951.56;;;6.61;100.00
77351;BME280;66420;50.246;14.320;2024-03-06T08:36:43;99945.03;;;6.57;100.00
77351;BME280;66420;50.246;14.320;2024-03-06T08:39:28;99951.81;;;6.69;100.00
77351;BME280;66420;50.246;14.320;2024-03-06T08:42:13;99950.47;;;6.77;100.00
77351;BME280;66420;50.246;14.320;2024-03-06T08:45:01;99955.38;;;6.75;100.00
77351;BME280;66420;50.246;14.320;2024-03-06T08:47:45;99956.19;;;6.81;100.00
77351;BME280;66420;50.246;14.320;2024-03-06T08:50:31;99950.47;;;6.87;100.00
77351;BME280;66420;50.246;14.320;2024-03-06T08:53:15;99951.00;;;6.94;98.76
77351;BME280;66420;50.246;14.320;2024-03-06T08:56:00;99947.09;;;7.26;98.74
77351;BME280;66420;50.246;14.320;2024-03-06T08:58:45;99953.03;;;7.38;96.84
77351;BME280;66420;50.246;14.320;2024-03-06T09:01:29;99944.31;;;7.41;95.20
77351;BME280;66420;50.246;14.320;2024-03-06T09:04:14;99952.03;;;7.19;95.97
77351;BME280;66420;50.246;14.320;2024-03-06T09:06:58;99953.06;;;7.33;95.82
77351;BME280;66420;50.246;14.320;2024-03-06T09:09:43;99953.56;;;7.45;96.45
77351;BME280;66420;50.246;14.320;2024-03-06T09:12:28;99960.03;;;7.59;94.99
77351;BME280;66420;50.246;14.320;2024-03-06T09:15:14;99955.88;;;7.72;94.14
77351;BME280;66420;50.246;14.320;2024-03-06T09:17:59;99951.25;;;7.72;93.25
77351;BME280;66420;50.246;14.320;2024-03-06T09:20:43;99963.13;;;7.96;94.20
77351;BME280;66420;50.246;14.320;2024-03-06T09:23:28;99966.88;;;8.06;93.10
77351;BME280;66420;50.246;14.320;2024-03-06T09:26:14;99962.28;;;8.01;92.74
77351;BME280;66420;50.246;14.320;2024-03-06T09:28:59;99962.78;;;8.08;90.97
77351;BME280;66420;50.246;14.320;2024-03-06T09:31:44;99966.94;;;7.95;90.19
77351;BME280;66420;50.246;14.320;2024-03-06T09:34:28;99961.03;;;7.78;89.30
77351;BME280;66420;50.246;14.320;2024-03-06T09:37:13;99964.19;;;8.00;89.36
77351;BME280;66420;50.246;14.320;2024-03-06T09:39:57;99964.56;;;8.28;90.17
77351;BME280;66420;50.246;14.320;2024-03-06T09:42:43;99970.44;;;8.06;87.70
77351;BME280;66420;50.246;14.320;2024-03-06T09:45:28;99973.28;;;8.30;89.25
77351;BME280;66420;50.246;14.320;2024-03-06T09:48:12;99977.63;;;8.36;88.75
77351;BME280;66420;50.246;14.320;2024-03-06T09:51:01;99967.94;;;8.10;88.20
77351;BME280;66420;50.246;14.320;2024-03-06T09:53:49;99973.56;;;8.33;88.21
77351;BME280;66420;50.246;14.320;2024-03-06T09:56:36;99974.06;;;8.35;88.67
77351;BME280;66420;50.246;14.320;2024-03-06T09:59:20;99977.44;;;8.61;87.50
77351;BME280;66420;50.246;14.320;2024-03-06T10:02:18;99976.66;;;8.84;86.86
77351;BME280;66420;50.246;14.320;2024-03-06T10:05:03;99974.94;;;8.65;86.77
77351;BME280;66420;50.246;14.320;2024-03-06T10:07:51;99968.69;;;8.93;84.84
77351;BME280;66420;50.246;14.320;2024-03-06T10:10:36;99969.13;;;8.71;86.35
77351;BME280;66420;50.246;14.320;2024-03-06T10:13:24;99972.41;;;8.73;86.00
77351;BME280;66420;50.246;14.320;2024-03-06T10:16:09;99973.69;;;8.81;86.18
77351;BME280;66420;50.246;14.320;2024-03-06T10:18:55;99963.97;;;8.99;84.32
77351;BME280;66420;50.246;14.320;2024-03-06T10:21:39;99966.19;;;8.97;84.35
77351;BME280;66420;50.246;14.320;2024-03-06T10:24:26;99976.44;;;9.10;84.66
77351;BME280;66420;50.246;14.320;2024-03-06T10:27:15;99971.69;;;8.92;85.16
77351;BME280;66420;50.246;14.320;2024-03-06T10:30:04;99976.88;;;8.93;81.48
77351;BME280;66420;50.246;14.320;2024-03-06T10:32:48;99965.50;;;9.10;81.71
77351;BME280;66420;50.246;14.320;2024-03-06T10:35:35;99976.31;;;9.67;78.86
77351;BME280;66420;50.246;14.320;2024-03-06T10:38:23;99968.31;;;9.76;81.32
77351;BME280;66420;50.246;14.320;2024-03-06T10:41:12;99968.81;;;9.97;77.80
77351;BME280;66420;50.246;14.320;2024-03-06T10:43:59;99961.94;;;10.55;79.10
77351;BME280;66420;50.246;14.320;2024-03-06T10:46:45;99964.84;;;10.45;77.44
77351;BME280;66420;50.246;14.320;2024-03-06T10:49:32;99960.06;;;10.70;79.79
77351;BME280;66420;50.246;14.320;2024-03-06T10:52:19;99960.44;;;10.95;74.47
77351;BME280;66420;50.246;14.320;2024-03-06T10:55:04;99964.22;;;10.35;76.33
77351;BME280;66420;50.246;14.320;2024-03-06T10:57:52;99957.03;;;10.20;73.97
77351;BME280;66420;50.246;14.320;2024-03-06T11:00:40;99959.69;;;10.25;76.09
77351;BME280;66420;50.246;14.320;2024-03-06T11:03:25;99961.72;;;9.96;75.43
77351;BME280;66420;50.246;14.320;2024-03-06T11:06:10;99956.31;;;9.91;80.10
77351;BME280;66420;50.246;14.320;2024-03-06T11:08:55;99954.25;;;9.83;79.30
77351;BME280;66420;50.246;14.320;2024-03-06T11:11:53;99956.47;;;9.81;77.54
77351;BME280;66420;50.246;14.320;2024-03-06T11:14:39;99953.25;;;9.55;74.94
77351;BME280;66420;50.246;14.320;2024-03-06T11:17:27;99956.22;;;9.11;76.23
77351;BME280;66420;50.246;14.320;2024-03-06T11:20:19;99948.31;;;9.33;76.97
77351;BME280;66420;50.246;14.320;2024-03-06T11:23:04;99954.25;;;9.16;74.79
77351;BME280;66420;50.246;14.320;2024-03-06T11:26:01;99949.84;;;9.20;76.10
77351;BME280;66420;50.246;14.320;2024-03-06T11:28:47;99943.38;;;9.35;75.87
77351;BME280;66420;50.246;14.320;2024-03-06T11:31:35;99945.53;;;9.38;74.84
77351;BME280;66420;50.246;14.320;2024-03-06T11:34:21;99947.03;;;9.49;75.34
77351;BME280;66420;50.246;14.320;2024-03-06T11:37:07;99947.03;;;9.49;75.04
77351;BME280;66420;50.246;14.320;2024-03-06T11:39:59;99938.31;;;9.47;74.33
77351;BME280;66420;50.246;14.320;2024-03-06T11:42:45;99940.63;;;9.35;73.58
77351;BME280;66420;50.246;14.320;2024-03-06T11:45:44;99938.31;;;9.47;73.77
77351;BME280;66420;50.246;14.320;2024-03-06T11:48:28;99937.22;;;10.28;73.03
77351;BME280;66420;50.246;14.320;2024-03-06T11:51:13;99937.56;;;10.73;68.33
77351;BME280;66420;50.246;14.320;2024-03-06T11:53:57;99929.31;;;11.05;64.90
77351;BME280;66420;50.246;14.320;2024-03-06T11:56:45;99929.78;;;10.80;63.12
77351;BME280;66420;50.246;14.320;2024-03-06T11:59:37;99938.19;;;10.70;63.68
77351;BME280;66420;50.246;14.320;2024-03-06T12:02:24;99933.09;;;10.63;65.11
77351;BME280;66420;50.246;14.320;2024-03-06T12:05:09;99925.59;;;10.68;67.27
77351;BME280;66420;50.246;14.320;2024-03-06T12:07:54;99916.28;;;10.37;68.50
77351;BME280;66420;50.246;14.320;2024-03-06T12:10:39;99923.59;;;10.42;67.91
77351;BME280;66420;50.246;14.320;2024-03-06T12:13:24;99920.56;;;10.06;69.34
77351;BME280;66420;50.246;14.320;2024-03-06T12:16:10;99929.13;;;9.99;68.92
77351;BME280;66420;50.246;14.320;2024-03-06T12:18:58;99916.06;;;9.96;67.67
77351;BME280;66420;50.246;14.320;2024-03-06T12:21:47;99914.56;;;10.04;65.87
77351;BME280;66420;50.246;14.320;2024-03-06T12:24:32;99907.09;;;10.93;67.17
77351;BME280;66420;50.246;14.320;2024-03-06T12:27:22;99903.88;;;11.32;61.45
77351;BME280;66420;50.246;14.320;2024-03-06T12:30:11;99901.31;;;11.76;61.43
77351;BME280;66420;50.246;14.320;2024-03-06T12:33:01;99902.19;;;12.21;60.85
77351;BME280;66420;50.246;14.320;2024-03-06T12:36:01;99894.94;;;11.26;60.84
77351;BME280;66420;50.246;14.320;2024-03-06T12:38:54;99895.75;;;10.99;62.54
77351;BME280;66420;50.246;14.320;2024-03-06T12:41:39;99895.22;;;10.97;59.56
77351;BME280;66420;50.246;14.320;2024-03-06T12:44:25;99894.59;;;10.87;62.81
77351;BME280;66420;50.246;14.320;2024-03-06T12:47:09;99894.22;;;11.07;62.84
77351;BME280;66420;50.246;14.320;2024-03-06T12:49:54;99893.78;;;10.86;62.01
77351;BME280;66420;50.246;14.320;2024-03-06T12:52:38;99884.81;;;10.53;61.91
77351;BME280;66420;50.246;14.320;2024-03-06T12:55:23;99898.72;;;10.57;61.93
77351;BME280;66420;50.246;14.320;2024-03-06T12:58:08;99896.19;;;10.60;63.49
77351;BME280;66420;50.246;14.320;2024-03-06T13:00:52;99893.03;;;11.13;62.03
77351;BME280;66420;50.246;14.320;2024-03-06T13:03:39;99893.69;;;10.45;59.01
77351;BME280;66420;50.246;14.320;2024-03-06T13:06:24;99889.84;;;10.92;61.94
77351;BME280;66420;50.246;14.320;2024-03-06T13:09:08;99899.63;;;10.52;62.64
77351;BME280;66420;50.246;14.320;2024-03-06T13:11:54;99905.19;;;9.91;66.96
77351;BME280;66420;50.246;14.320;2024-03-06T13:14:38;99897.31;;;9.90;68.46
77351;BME280;66420;50.246;14.320;2024-03-06T13:17:23;99901.56;;;9.58;67.20
77351;BME280;66420;50.246;14.320;2024-03-06T13:20:08;99894.47;;;10.32;67.26
77351;BME280;66420;50.246;14.320;2024-03-06T13:22:56;99895.44;;;10.04;66.24
77351;BME280;66420;50.246;14.320;2024-03-06T13:25:40;99903.44;;;10.51;67.91
77351;BME280;66420;50.246;14.320;2024-03-06T13:28:25;99894.81;;;10.77;64.01
77351;BME280;66420;50.246;14.320;2024-03-06T13:31:10;99903.81;;;9.94;61.84
77351;BME280;66420;50.246;14.320;2024-03-06T13:33:54;99913.69;;;9.71;63.29
77351;BME280;66420;50.246;14.320;2024-03-06T13:36:39;99909.63;;;10.06;61.96
77351;BME280;66420;50.246;14.320;2024-03-06T13:39:24;99908.94;;;10.14;60.01
77351;BME280;66420;50.246;14.320;2024-03-06T13:42:09;99907.44;;;10.73;60.42
77351;BME280;66420;50.246;14.320;2024-03-06T13:44:55;99911.63;;;10.70;57.82
77351;BME280;66420;50.246;14.320;2024-03-06T13:47:42;99906.84;;;10.30;58.94
77351;BME280;66420;50.246;14.320;2024-03-06T13:50:26;99900.69;;;10.84;56.80
77351;BME280;66420;50.246;14.320;2024-03-06T13:53:12;99909.53;;;10.48;55.99
77351;BME280;66420;50.246;14.320;2024-03-06T13:55:57;99905.41;;;10.32;55.11
77351;BME280;66420;50.246;14.320;2024-03-06T13:58:42;99905.53;;;10.41;56.48
77351;BME280;66420;50.246;14.320;2024-03-06T14:01:26;99914.41;;;10.14;56.36
77351;BME280;66420;50.246;14.320;2024-03-06T14:04:11;99908.97;;;10.65;56.57
77351;BME280;66420;50.246;14.320;2024-03-06T14:06:56;99916.53;;;11.00;58.44
77351;BME280;66420;50.246;14.320;2024-03-06T14:09:43;99920.97;;;10.83;56.80
77351;BME280;66420;50.246;14.320;2024-03-06T14:12:28;99905.38;;;11.10;55.30
77351;BME280;66420;50.246;14.320;2024-03-06T14:15:13;99920.09;;;11.15;55.16
77351;BME280;66420;50.246;14.320;2024-03-06T14:18:00;99918.78;;;11.12;54.99
77351;BME280;66420;50.246;14.320;2024-03-06T14:20:46;99917.34;;;11.01;53.71
77351;BME280;66420;50.246;14.320;2024-03-06T14:23:30;99925.91;;;11.13;51.79
77351;BME280;66420;50.246;14.320;2024-03-06T14:26:16;99921.22;;;11.14;48.16
77351;BME280;66420;50.246;14.320;2024-03-06T14:29:01;99925.38;;;10.65;48.57